Time;durP1;ratioP1;P1;durP2;ratioP2;P2;SDS_P1;SDS_P2;PMS_P1;PMS_P2;Temp;Humidity;BMP_temperature;BMP_pressure;BME280_temperature;BME280_humidity;BME280_pressure;Samples;Min_cycle;Max_cycle;Signal;HPM_P1;HPM_P2
2023/07/05 00:01:52;;;;;;;6.25;4.88;;;;;;;15.73;100.00;100346.88;4982557;28;20026;-76
2023/07/05 00:04:17;;;;;;;8.95;5.00;;;;;;;15.71;100.00;100338.25;4977442;28;20038;-69
2023/07/05 00:06:42;;;;;;;9.85;5.07;;;;;;;15.72;100.00;100324.00;4986795;28;20026;-76
2023/07/05 00:09:10;;;;;;;8.48;5.22;;;;;;;15.71;100.00;100319.69;4981450;28;20033;-69
2023/07/05 00:11:36;;;;;;;7.00;4.70;;;;;;;15.69;100.00;100317.19;4971712;28;20395;-69
2023/07/05 00:14:01;;;;;;;5.80;4.50;;;;;;;15.69;100.00;100321.66;4973846;28;20027;-69
2023/07/05 00:16:26;;;;;;;10.20;4.75;;;;;;;15.69;100.00;100303.09;4975016;28;20306;-69
2023/07/05 00:18:52;;;;;;;6.57;4.25;;;;;;;15.67;100.00;100290.00;4984199;28;20038;-75
2023/07/05 00:21:17;;;;;;;5.95;3.90;;;;;;;15.65;100.00;100284.03;5001273;28;20065;-76
2023/07/05 00:23:46;;;;;;;7.53;3.90;;;;;;;15.63;100.00;100273.56;4971923;28;20074;-69
2023/07/05 00:26:12;;;;;;;6.72;3.67;;;;;;;15.61;100.00;100267.59;4971296;28;20054;-75
2023/07/05 00:28:37;;;;;;;7.18;4.18;;;;;;;15.59;100.00;100261.59;4962174;28;20117;-74
2023/07/05 00:31:04;;;;;;;7.95;3.97;;;;;;;15.60;100.00;100250.00;4972386;28;20411;-69
2023/07/05 00:33:33;;;;;;;5.90;3.50;;;;;;;15.58;100.00;100243.19;4971264;28;20073;-74
2023/07/05 00:35:59;;;;;;;7.88;3.53;;;;;;;15.55;100.00;100224.91;4971636;28;20388;-75
2023/07/05 00:38:25;;;;;;;7.57;3.60;;;;;;;15.54;100.00;100180.84;4971777;28;20026;-76
2023/07/05 00:40:51;;;;;;;7.63;4.15;;;;;;;15.50;100.00;100193.59;4971144;28;20037;-75
2023/07/05 00:43:18;;;;;;;6.97;4.15;;;;;;;15.49;100.00;100210.50;4971273;28;20066;-68
2023/07/05 00:45:50;;;;;;;6.25;3.58;;;;;;;15.46;100.00;100229.38;4969208;28;20056;-75
2023/07/05 00:48:23;;;;;;;6.20;4.45;;;;;;;15.44;100.00;100235.81;4971522;28;20035;-75
2023/07/05 00:50:53;;;;;;;4.70;3.60;;;;;;;15.44;100.00;100220.75;4970181;28;20030;-74
2023/07/05 00:53:19;;;;;;;5.72;3.97;;;;;;;15.42;100.00;100208.66;4971919;28;20190;-74
2023/07/05 00:55:55;;;;;;;6.70;3.80;;;;;;;15.42;100.00;100209.47;4971813;28;20030;-75
2023/07/05 00:58:22;;;;;;;6.60;4.05;;;;;;;15.41;100.00;100207.00;4979702;28;20030;-68
2023/07/05 01:00:48;;;;;;;7.53;4.03;;;;;;;15.40;100.00;100200.84;4977992;28;20038;-75
2023/07/05 01:03:20;;;;;;;6.80;4.10;;;;;;;15.39;100.00;100196.53;4977919;28;20026;-75
2023/07/05 01:05:48;;;;;;;6.75;4.53;;;;;;;15.39;100.00;100183.28;4980756;28;20220;-75
2023/07/05 01:08:13;;;;;;;5.50;4.30;;;;;;;15.37;100.00;100174.66;4982602;28;20554;-74
2023/07/05 01:10:42;;;;;;;8.63;4.28;;;;;;;15.39;100.00;100177.16;4989780;28;20038;-75
2023/07/05 01:13:21;;;;;;;6.75;3.65;;;;;;;15.39;100.00;100182.47;4984180;28;20033;-68
2023/07/05 01:15:53;;;;;;;7.07;3.88;;;;;;;15.39;100.00;100180.63;4983577;28;20513;-74
2023/07/05 01:18:31;;;;;;;6.00;3.95;;;;;;;15.41;100.00;100176.00;4981019;28;20035;-75
2023/07/05 01:21:05;;;;;;;7.57;3.90;;;;;;;15.39;100.00;100191.25;4977640;28;20058;-74
2023/07/05 01:23:37;;;;;;;6.78;3.70;;;;;;;15.41;100.00;100183.97;4978904;28;20035;-68
2023/07/05 01:26:25;;;;;;;6.35;3.63;;;;;;;15.43;100.00;100205.00;4975705;28;20038;-68
2023/07/05 01:29:12;;;;;;;6.53;3.70;;;;;;;15.43;100.00;100205.84;4977040;28;20383;-68
2023/07/05 01:32:09;;;;;;;4.57;3.70;;;;;;;15.47;100.00;100185.97;4983315;28;20042;-68
2023/07/05 01:34:38;;;;;;;6.00;3.53;;;;;;;15.48;100.00;100192.91;4962473;28;20101;-69
2023/07/05 01:37:08;;;;;;;4.30;3.20;;;;;;;15.46;100.00;100181.66;4959605;28;20031;-68
2023/07/05 01:39:34;;;;;;;4.93;2.95;;;;;;;15.49;100.00;100191.09;4957620;28;20026;-68
2023/07/05 01:42:01;;;;;;;6.68;3.30;;;;;;;15.50;100.00;100196.25;4971099;28;20035;-74
2023/07/05 01:44:27;;;;;;;3.47;3.08;;;;;;;15.52;100.00;100204.88;4998376;28;20085;-75
2023/07/05 01:47:15;;;;;;;4.50;2.88;;;;;;;15.52;100.00;100210.16;4971314;28;20046;-75
2023/07/05 01:49:45;;;;;;;4.65;2.95;;;;;;;15.49;100.00;100213.13;4980232;28;20394;-74
2023/07/05 01:52:21;;;;;;;5.22;3.15;;;;;;;15.49;100.00;100213.13;4989555;28;20483;-74
2023/07/05 01:55:12;;;;;;;5.25;2.90;;;;;;;15.46;100.00;100216.13;4980500;28;20034;-74
2023/07/05 01:57:44;;;;;;;5.40;3.00;;;;;;;15.45;100.00;100224.22;4966484;28;20023;-68
2023/07/05 02:00:15;;;;;;;;;;;;;;;15.50;100.00;100248.44;4986500;28;20026;-68
2023/07/05 02:02:50;;;;;;;4.28;2.80;;;;;;;15.41;100.00;100236.97;4984497;28;19922;-68
2023/07/05 02:05:16;;;;;;;3.80;2.55;;;;;;;15.34;100.00;100262.47;4977485;28;20101;-68
2023/07/05 02:07:44;;;;;;;4.20;2.55;;;;;;;15.31;100.00;100263.63;4973039;28;20054;-68
2023/07/05 02:10:10;;;;;;;4.25;2.40;;;;;;;15.25;100.00;100277.50;4994487;28;20054;-68
2023/07/05 02:12:35;;;;;;;3.80;2.30;;;;;;;15.15;100.00;100276.75;4996120;28;20050;-68
2023/07/05 02:15:00;;;;;;;5.75;1.98;;;;;;;15.04;100.00;100280.50;4974793;28;20487;-68
2023/07/05 02:17:27;;;;;;;2.67;2.00;;;;;;;14.92;100.00;100296.84;4978848;28;20110;-68
2023/07/05 02:19:52;;;;;;;3.70;1.90;;;;;;;14.80;100.00;100298.88;4987229;28;20062;-68
2023/07/05 02:22:19;;;;;;;3.20;2.17;;;;;;;14.66;100.00;100302.09;4986976;28;20116;-68
2023/07/05 02:24:45;;;;;;;4.47;2.70;;;;;;;14.52;100.00;100305.28;4970055;28;20031;-74
2023/07/05 02:27:10;;;;;;;3.85;2.90;;;;;;;14.43;100.00;100292.97;4969518;28;20026;-69
2023/07/05 02:29:36;;;;;;;3.92;2.80;;;;;;;14.31;100.00;100303.72;4973322;28;20029;-74
2023/07/05 02:32:01;;;;;;;3.53;2.53;;;;;;;14.24;100.00;100321.19;4970784;28;20029;-74
2023/07/05 02:34:28;;;;;;;4.53;2.55;;;;;;;14.18;100.00;100324.44;4972722;28;20031;-75
2023/07/05 02:36:54;;;;;;;4.13;2.90;;;;;;;14.13;100.00;100325.88;4972767;28;20023;-68
2023/07/05 02:39:19;;;;;;;3.55;2.63;;;;;;;14.07;100.00;100332.59;4973042;28;20104;-68
2023/07/05 02:41:44;;;;;;;5.47;3.20;;;;;;;14.01;100.00;100317.31;4973696;28;20482;-68
2023/07/05 02:44:10;;;;;;;4.38;2.90;;;;;;;13.95;100.00;100321.34;4973590;28;20105;-68
2023/07/05 02:46:36;;;;;;;4.43;3.00;;;;;;;13.89;100.00;100331.69;4973652;28;20405;-67
2023/07/05 02:49:02;;;;;;;7.18;3.00;;;;;;;13.83;100.00;100334.94;4970046;28;20034;-75
2023/07/05 02:51:28;;;;;;;7.03;3.10;;;;;;;13.79;100.00;100329.94;4972355;28;20543;-74
2023/07/05 02:53:54;;;;;;;4.22;2.92;;;;;;;13.74;100.00;100326.91;4971626;28;20054;-74
2023/07/05 02:56:20;;;;;;;5.82;3.88;;;;;;;13.69;100.00;100323.88;4974280;28;20037;-68
2023/07/05 02:58:46;;;;;;;5.28;3.30;;;;;;;13.65;100.00;100322.50;4989627;28;20034;-68
2023/07/05 03:01:11;;;;;;;6.18;3.35;;;;;;;13.61;100.00;100321.13;4976192;28;20027;-68
2023/07/05 03:03:37;;;;;;;6.07;3.35;;;;;;;13.55;100.00;100329.63;4974873;28;20034;-74
2023/07/05 03:06:03;;;;;;;4.78;3.47;;;;;;;13.51;100.00;100328.25;4971762;28;20089;-76
2023/07/05 03:08:28;;;;;;;4.75;3.50;;;;;;;13.46;100.00;100328.69;4991676;28;20482;-76
2023/07/05 03:10:55;;;;;;;6.53;3.55;;;;;;;13.42;100.00;100321.19;4979523;28;20022;-69
2023/07/05 03:13:21;;;;;;;6.85;3.80;;;;;;;13.39;100.00;100332.06;4985309;28;20026;-76
2023/07/05 03:15:47;;;;;;;6.72;4.00;;;;;;;13.34;100.00;100329.03;4984049;28;20041;-75
2023/07/05 03:18:12;;;;;;;6.72;4.18;;;;;;;13.32;100.00;100328.31;4978096;28;20034;-70
2023/07/05 03:20:38;;;;;;;4.43;3.80;;;;;;;13.29;100.00;100316.25;4971522;28;20030;-70
2023/07/05 03:23:04;;;;;;;6.15;4.07;;;;;;;13.27;100.00;100330.56;4971614;28;20062;-70
2023/07/05 03:25:29;;;;;;;6.72;4.25;;;;;;;13.27;100.00;100320.00;4975089;28;20050;-68
2023/07/05 03:27:54;;;;;;;6.70;4.65;;;;;;;13.27;100.00;100318.19;4974143;28;20086;-75
2023/07/05 03:30:22;;;;;;;6.68;4.40;;;;;;;13.28;100.00;100319.03;4980517;28;20045;-74
2023/07/05 03:32:49;;;;;;;7.38;4.38;;;;;;;13.28;100.00;100319.88;4975716;28;20020;-75
2023/07/05 03:35:15;;;;;;;6.00;4.15;;;;;;;13.29;100.00;100329.44;4984687;28;20058;-74
2023/07/05 03:37:40;;;;;;;6.00;4.50;;;;;;;13.29;100.00;100325.97;4981446;28;20026;-74
2023/07/05 03:40:10;;;;;;;6.20;4.53;;;;;;;13.30;100.00;100322.34;4973231;28;20049;-75
2023/07/05 03:42:36;;;;;;;5.63;4.40;;;;;;;13.30;100.00;100327.66;4974117;28;20113;-75
2023/07/05 03:45:01;;;;;;;5.20;4.45;;;;;;;13.31;100.00;100334.59;4987003;28;20026;-68
2023/07/05 03:47:28;;;;;;;8.00;4.13;;;;;;;13.30;100.00;100332.94;4986013;28;20037;-68
2023/07/05 03:49:53;;;;;;;7.60;4.80;;;;;;;13.32;100.00;100329.16;4975294;28;20041;-74
2023/07/05 03:52:19;;;;;;;6.90;4.68;;;;;;;13.32;100.00;100331.81;4971157;28;20035;-68
2023/07/05 03:54:44;;;;;;;6.65;4.63;;;;;;;13.31;100.00;100327.50;4978062;28;20026;-68
2023/07/05 03:57:10;;;;;;;5.82;4.38;;;;;;;13.32;100.00;100331.81;4975617;28;20061;-68
2023/07/05 03:59:35;;;;;;;7.15;4.45;;;;;;;13.34;100.00;100319.28;4974930;28;20027;-70
2023/07/05 04:02:00;;;;;;;7.07;4.75;;;;;;;13.34;100.00;100316.63;4986654;28;20034;-70
2023/07/05 04:04:26;;;;;;;5.18;4.50;;;;;;;13.35;100.00;100315.66;4980758;28;20228;-70
2023/07/05 04:06:52;;;;;;;7.28;4.70;;;;;;;13.35;100.00;100309.53;4999472;28;20026;-69
2023/07/05 04:09:17;;;;;;;5.65;4.70;;;;;;;13.33;100.00;100322.91;4985240;28;20023;-67
2023/07/05 04:11:43;;;;;;;7.63;4.70;;;;;;;13.35;100.00;100320.13;4982751;28;20434;-68
2023/07/05 04:14:09;;;;;;;7.68;5.00;;;;;;;13.33;100.00;100316.78;4984907;28;20027;-75
2023/07/05 04:16:36;;;;;;;9.55;5.00;;;;;;;13.35;100.00;100326.22;4997429;28;20538;-68
2023/07/05 04:19:01;;;;;;;7.53;5.28;;;;;;;13.36;100.00;100321.78;4977814;28;20042;-68
2023/07/05 04:21:27;;;;;;;11.25;4.80;;;;;;;13.37;100.00;100318.16;4984413;28;20027;-73
2023/07/05 04:23:53;;;;;;;7.50;4.93;;;;;;;13.40;100.00;100321.34;4971902;28;20030;-74
2023/07/05 04:26:21;;;;;;;7.18;4.80;;;;;;;13.41;100.00;100325.66;4972211;28;20498;-74
2023/07/05 04:28:47;;;;;;;9.48;4.90;;;;;;;13.43;100.00;100325.50;4971335;28;20038;-74
2023/07/05 04:31:18;;;;;;;10.52;5.60;;;;;;;13.48;99.59;100336.47;4968976;28;20035;-74
2023/07/05 04:33:45;;;;;;;7.68;4.95;;;;;;;13.50;99.85;100323.94;4972444;28;20027;-74
2023/07/05 04:36:12;;;;;;;6.47;5.13;;;;;;;13.53;98.85;100339.50;4986993;28;20491;-68
2023/07/05 04:38:38;;;;;;;7.68;4.57;;;;;;;13.50;100.00;100321.28;4986104;28;20548;-68
2023/07/05 04:41:03;;;;;;;5.43;4.57;;;;;;;13.52;99.18;100329.09;4971986;28;20038;-68
2023/07/05 04:43:29;;;;;;;9.63;4.93;;;;;;;13.53;98.71;100328.09;4971859;28;20023;-68
2023/07/05 04:45:56;;;;;;;7.88;4.93;;;;;;;13.52;98.62;100329.91;4970946;28;20026;-68
2023/07/05 04:48:23;;;;;;;8.27;5.05;;;;;;;13.51;98.71;100325.59;4969005;28;20031;-68
2023/07/05 04:50:52;;;;;;;6.78;4.90;;;;;;;13.53;97.82;100333.38;4969627;28;20117;-68
2023/07/05 04:53:21;;;;;;;6.18;4.65;;;;;;;13.51;97.27;100330.91;4974195;28;20177;-68
2023/07/05 04:55:52;;;;;;;9.18;5.05;;;;;;;13.53;98.87;100338.69;4983668;28;20038;-68
2023/07/05 04:58:24;;;;;;;6.40;4.85;;;;;;;13.54;96.06;100340.34;4984933;28;20038;-68
2023/07/05 05:00:49;;;;;;;8.65;5.15;;;;;;;13.55;96.94;100324.34;4970559;28;20023;-69
2023/07/05 05:03:22;;;;;;;7.35;4.75;;;;;;;13.57;97.11;100335.59;4983569;28;20076;-68
2023/07/05 05:05:50;;;;;;;9.48;4.32;;;;;;;13.55;95.55;100336.72;4969820;28;20031;-68
2023/07/05 05:08:16;;;;;;;6.45;4.68;;;;;;;13.61;95.30;100346.72;4969022;28;20031;-74
2023/07/05 05:10:41;;;;;;;6.75;4.38;;;;;;;13.66;94.89;100347.13;4971959;28;20169;-73
2023/07/05 05:13:10;;;;;;;6.97;4.55;;;;;;;13.62;95.61;100349.25;4981275;28;20026;-74
2023/07/05 05:15:40;;;;;;;7.63;4.47;;;;;;;13.63;94.79;100337.69;4989106;28;20479;-74
2023/07/05 05:18:06;;;;;;;6.50;4.45;;;;;;;13.63;94.70;100350.91;4990854;28;20364;-68
2023/07/05 05:20:32;;;;;;;8.10;4.50;;;;;;;13.63;94.63;100350.06;4975116;28;20541;-68
2023/07/05 05:22:58;;;;;;;6.88;4.38;;;;;;;13.63;95.60;100350.06;4979921;28;20038;-68
2023/07/05 05:25:25;;;;;;;8.02;4.20;;;;;;;13.62;93.21;100354.53;4990426;28;20124;-67
2023/07/05 05:27:51;;;;;;;8.73;4.60;;;;;;;13.61;92.93;100354.63;4988251;28;20033;-69
2023/07/05 05:30:16;;;;;;;7.25;3.58;;;;;;;13.60;91.81;100347.69;4990513;28;20034;-74
2023/07/05 05:32:42;;;;;;;10.30;4.07;;;;;;;13.57;93.84;100351.44;4990311;28;20411;-74
2023/07/05 05:35:08;;;;;;;7.72;4.00;;;;;;;13.57;93.20;100351.44;4989562;28;20525;-68
2023/07/05 05:37:33;;;;;;;7.53;4.22;;;;;;;13.56;93.23;100351.59;4970243;28;20070;-74
2023/07/05 05:39:59;;;;;;;6.45;3.97;;;;;;;13.57;93.12;100356.75;4970962;28;20490;-68
2023/07/05 05:42:24;;;;;;;10.50;4.13;;;;;;;13.58;92.73;100361.03;4973527;28;20038;-68
2023/07/05 05:44:50;;;;;;;5.88;3.92;;;;;;;13.56;92.71;100365.66;4970924;28;20106;-69
2023/07/05 05:47:15;;;;;;;6.57;4.22;;;;;;;13.58;94.10;100368.16;4970316;28;20550;-68
2023/07/05 05:49:40;;;;;;;9.35;4.20;;;;;;;13.57;93.22;100377.88;4970455;28;20067;-68
2023/07/05 05:52:06;;;;;;;9.00;4.10;;;;;;;13.54;92.72;100362.31;4971057;28;20042;-68
2023/07/05 05:54:37;;;;;;;6.40;3.83;;;;;;;13.54;92.65;100367.59;4967294;28;20483;-69
2023/07/05 05:57:03;;;;;;;7.22;4.13;;;;;;;13.54;92.62;100366.78;4970017;28;20557;-68
2023/07/05 05:59:28;;;;;;;5.53;3.70;;;;;;;13.59;90.88;100377.75;4971760;28;20042;-68
2023/07/05 06:01:53;;;;;;;7.70;3.90;;;;;;;13.61;92.28;100389.88;4986045;28;20030;-68
2023/07/05 06:04:19;;;;;;;7.35;3.78;;;;;;;13.58;92.98;100379.56;4986205;28;20093;-68
2023/07/05 06:06:46;;;;;;;6.63;3.70;;;;;;;13.54;95.51;100388.75;4987981;28;20026;-69
2023/07/05 06:09:14;;;;;;;6.25;3.90;;;;;;;13.50;94.81;100403.22;4989847;28;20066;-79
2023/07/05 06:11:39;;;;;;;5.68;3.65;;;;;;;13.51;94.30;100404.06;4969766;28;20027;-79
2023/07/05 06:14:04;;;;;;;5.35;3.60;;;;;;;13.53;95.00;100412.69;4965647;28;20046;-70
2023/07/05 06:16:32;;;;;;;5.18;3.55;;;;;;;13.54;95.64;100409.91;4949080;29;20074;-80
2023/07/05 06:18:57;;;;;;;6.28;3.58;;;;;;;13.48;95.94;100421.03;4951066;28;20154;-79
2023/07/05 06:21:23;;;;;;;6.82;3.60;;;;;;;13.45;96.75;100419.53;4950008;29;20195;-70
2023/07/05 06:23:50;;;;;;;8.50;3.50;;;;;;;13.40;97.18;100418.28;4982799;28;20533;-69
2023/07/05 06:26:18;;;;;;;9.07;3.40;;;;;;;13.45;96.60;100421.34;4977875;28;20041;-69
2023/07/05 06:28:46;;;;;;;5.25;3.15;;;;;;;13.55;95.27;100427.44;4969858;28;20384;-68
2023/07/05 06:31:12;;;;;;;5.43;3.30;;;;;;;13.61;94.51;100418.09;4966198;28;20058;-68
2023/07/05 06:33:39;;;;;;;3.83;2.80;;;;;;;13.66;93.74;100419.34;4971118;28;20093;-68
2023/07/05 06:36:05;;;;;;;7.07;3.17;;;;;;;13.77;92.03;100428.91;4968512;28;20058;-69
2023/07/05 06:38:31;;;;;;;4.45;2.88;;;;;;;13.86;90.37;100425.38;4969199;28;20101;-73
2023/07/05 06:40:57;;;;;;;6.50;3.10;;;;;;;13.95;89.86;100428.97;4975627;28;20065;-73
2023/07/05 06:43:23;;;;;;;4.05;2.83;;;;;;;13.99;90.34;100425.88;4972510;28;20023;-68
2023/07/05 06:45:53;;;;;;;7.22;3.05;;;;;;;14.04;89.30;100438.69;4969391;28;20109;-74
2023/07/05 06:48:19;;;;;;;8.57;2.90;;;;;;;14.07;87.45;100456.94;4967206;28;20606;-73
2023/07/05 06:50:50;;;;;;;5.95;2.80;;;;;;;14.12;87.21;100457.31;4972533;28;20114;-68
2023/07/05 06:53:15;;;;;;;4.90;2.72;;;;;;;14.09;86.97;100449.69;4968632;28;20038;-68
2023/07/05 06:55:40;;;;;;;6.10;2.88;;;;;;;14.08;87.37;100451.50;4969707;28;20061;-68
2023/07/05 06:58:06;;;;;;;5.30;2.60;;;;;;;14.14;86.90;100460.66;4971358;28;20035;-68
2023/07/05 07:00:32;;;;;;;5.15;2.80;;;;;;;14.24;85.94;100466.72;4975018;28;20038;-69
2023/07/05 07:02:57;;;;;;;8.65;2.60;;;;;;;14.31;84.85;100467.81;4966450;28;20022;-74
2023/07/05 07:05:23;;;;;;;6.80;2.58;;;;;;;14.48;83.11;100468.06;4975220;28;20019;-69
2023/07/05 07:07:51;;;;;;;5.45;2.50;;;;;;;14.60;83.86;100488.03;4987305;28;20034;-69
2023/07/05 07:10:16;;;;;;;5.63;2.53;;;;;;;14.54;81.51;100488.63;4970203;28;20030;-68
2023/07/05 07:12:42;;;;;;;5.80;2.22;;;;;;;14.54;82.20;100485.97;4965921;28;20038;-69
2023/07/05 07:15:10;;;;;;;3.47;2.00;;;;;;;14.52;81.33;100490.59;4972087;28;20109;-69
2023/07/05 07:17:35;;;;;;;5.25;2.08;;;;;;;14.51;81.93;100494.22;4974218;28;20026;-72
2023/07/05 07:20:01;;;;;;;4.90;2.47;;;;;;;14.55;83.74;100495.59;4967222;28;20062;-73
2023/07/05 07:22:26;;;;;;;6.38;2.40;;;;;;;14.56;85.41;100499.91;4974325;28;20041;-73
2023/07/05 07:24:52;;;;;;;5.07;2.40;;;;;;;14.53;87.75;100508.97;4972963;28;20034;-73
2023/07/05 07:27:18;;;;;;;5.03;2.50;;;;;;;14.47;89.81;100514.03;4971817;28;20533;-72
2023/07/05 07:29:44;;;;;;;4.38;2.55;;;;;;;14.31;91.68;100531.31;4972555;28;20539;-68
2023/07/05 07:32:10;;;;;;;6.15;2.80;;;;;;;14.09;92.03;100526.41;4955640;28;20073;-67
2023/07/05 07:34:36;;;;;;;5.90;2.63;;;;;;;13.90;93.42;100537.00;4973148;28;20122;-72
2023/07/05 07:37:01;;;;;;;6.55;3.10;;;;;;;13.74;96.58;100543.72;4973468;28;20488;-72
2023/07/05 07:39:29;;;;;;;3.50;2.50;;;;;;;13.51;97.39;100550.28;4986792;28;20410;-73
2023/07/05 07:41:55;;;;;;;5.45;2.80;;;;;;;13.40;99.94;100555.72;4971795;28;20037;-68
2023/07/05 07:44:21;;;;;;;6.18;2.88;;;;;;;13.39;99.12;100554.03;4973256;28;20396;-68
2023/07/05 07:46:47;;;;;;;5.07;3.25;;;;;;;13.39;99.92;100557.50;4972489;28;20106;-67
2023/07/05 07:49:12;;;;;;;7.90;3.08;;;;;;;13.32;99.59;100574.06;4986628;28;20502;-68
2023/07/05 07:51:45;;;;;;;7.95;3.70;;;;;;;13.23;100.00;100580.19;4987535;28;20034;-72
2023/07/05 07:54:26;;;;;;;7.60;3.22;;;;;;;13.21;100.00;100584.75;4972018;28;20031;-72
2023/07/05 07:56:54;;;;;;;4.97;3.03;;;;;;;13.15;100.00;100589.56;4968444;28;20081;-72
2023/07/05 07:59:20;;;;;;;9.05;3.10;;;;;;;13.15;100.00;100584.28;4972370;28;20038;-72
2023/07/05 08:01:46;;;;;;;6.50;3.28;;;;;;;13.11;100.00;100582.06;4970696;28;20031;-73
2023/07/05 08:04:12;;;;;;;6.65;3.20;;;;;;;13.05;100.00;100580.78;4970736;28;20438;-67
2023/07/05 08:06:40;;;;;;;6.57;3.28;;;;;;;13.06;100.00;100584.28;4971435;28;20023;-72
2023/07/05 08:09:09;;;;;;;5.57;2.97;;;;;;;13.02;100.00;100589.00;4986383;28;20054;-67
2023/07/05 08:11:36;;;;;;;8.13;3.13;;;;;;;13.06;100.00;100584.28;4991206;28;20386;-67
2023/07/05 08:14:01;;;;;;;4.82;2.88;;;;;;;13.12;100.00;100584.56;4975069;28;20572;-72
2023/07/05 08:16:27;;;;;;;8.68;2.78;;;;;;;13.37;100.00;100595.63;4977835;28;20927;-72
2023/07/05 08:18:53;;;;;;;9.25;3.35;;;;;;;13.75;100.00;100593.00;4989941;28;20478;-72
2023/07/05 08:21:20;;;;;;;8.80;3.38;;;;;;;14.07;99.34;100603.28;4991609;28;20038;-72
2023/07/05 08:23:45;;;;;;;7.60;3.40;;;;;;;14.47;99.01;100607.53;4990527;28;20026;-71
2023/07/05 08:26:12;;;;;;;4.70;3.10;;;;;;;14.89;93.67;100605.25;4991328;28;20022;-72
2023/07/05 08:28:38;;;;;;;7.28;3.05;;;;;;;15.08;91.61;100611.41;4990430;28;20022;-73
2023/07/05 08:31:04;;;;;;;8.20;3.10;;;;;;;15.31;92.63;100610.03;4972112;28;20545;-72
2023/07/05 08:33:31;;;;;;;14.50;3.47;;;;;;;15.49;87.83;100612.69;4970689;28;20038;-72
2023/07/05 08:36:13;;;;;;;7.35;3.25;;;;;;;15.90;88.69;100616.56;4972293;28;20440;-73
2023/07/05 08:38:40;;;;;;;7.57;3.47;;;;;;;16.20;83.69;100612.66;4972403;28;20394;-76
2023/07/05 08:41:11;;;;;;;8.48;3.08;;;;;;;16.39;82.59;100646.13;4972798;28;20029;-69
2023/07/05 08:43:53;;;;;;;7.75;3.20;;;;;;;16.28;84.83;100640.09;4972726;28;20126;-75
2023/07/05 08:46:19;;;;;;;12.05;3.28;;;;;;;16.36;82.90;100643.78;4970530;28;20033;-69
2023/07/05 08:48:48;;;;;;;8.63;3.30;;;;;;;16.56;82.02;100645.28;4972274;28;20118;-69
2023/07/05 08:51:15;;;;;;;6.90;2.92;;;;;;;16.75;81.82;100652.19;4962368;28;20031;-69
2023/07/05 08:53:48;;;;;;;8.52;3.10;;;;;;;16.98;79.74;100648.00;4957298;28;20027;-69
2023/07/05 08:56:21;;;;;;;6.32;2.83;;;;;;;17.47;78.96;100656.97;4970660;28;20025;-69
2023/07/05 08:58:50;;;;;;;;;;;;;;;17.93;80.48;100654.75;4972033;28;20129;-76
2023/07/05 09:01:22;;;;;;;9.23;3.00;;;;;;;18.13;75.25;100655.25;4970853;28;20371;-69
2023/07/05 09:03:48;;;;;;;8.27;2.80;;;;;;;18.36;73.27;100652.72;4970667;28;20114;-70
2023/07/05 09:06:32;;;;;;;7.85;2.97;;;;;;;18.50;71.03;100660.06;4968959;28;20038;-69
2023/07/05 09:09:04;;;;;;;8.02;3.20;;;;;;;18.50;69.07;100670.72;4967405;28;20126;-70
2023/07/05 09:11:32;;;;;;;;;;;;;;;18.63;70.67;100670.22;4952181;28;20031;-77
2023/07/05 09:14:19;;;;;;;7.78;2.88;;;;;;;18.37;71.05;100683.69;4951082;28;20379;-76
2023/07/05 09:16:58;;;;;;;7.57;2.67;;;;;;;18.08;70.89;100698.38;4951887;28;20028;-76
2023/07/05 09:19:29;;;;;;;6.90;2.85;;;;;;;17.88;68.96;100701.50;4951228;28;20090;-75
2023/07/05 09:22:06;;;;;;;10.60;3.25;;;;;;;17.78;69.73;100699.00;4951850;28;20035;-76
2023/07/05 09:24:36;;;;;;;9.25;3.20;;;;;;;17.98;71.02;100702.16;4953746;28;20059;-76
2023/07/05 09:27:09;;;;;;;8.88;2.80;;;;;;;18.52;70.45;100718.50;4950468;28;20626;-77
2023/07/05 09:29:46;;;;;;;7.32;3.10;;;;;;;18.95;67.63;100691.44;4951795;28;20023;-70
2023/07/05 09:32:16;;;;;;;8.73;2.97;;;;;;;19.31;65.68;100699.81;4979181;28;20034;-69
2023/07/05 09:34:44;;;;;;;7.72;2.53;;;;;;;19.67;64.42;100702.00;4969548;28;20055;-69
2023/07/05 09:37:17;;;;;;;10.57;2.50;;;;;;;20.05;62.67;100716.28;4985379;28;20027;-70
2023/07/05 09:39:51;;;;;;;8.38;2.85;;;;;;;20.10;59.50;100723.75;4985156;28;20165;-70
2023/07/05 09:42:33;;;;;;;9.07;2.10;;;;;;;19.83;57.52;100720.59;4969477;28;20034;-69
2023/07/05 09:44:59;;;;;;;6.25;2.13;;;;;;;19.64;58.92;100737.06;4971060;28;20030;-70
2023/07/05 09:47:24;;;;;;;8.30;2.10;;;;;;;19.48;58.36;100763.78;4968421;28;20030;-70
2023/07/05 09:49:49;;;;;;;7.40;1.90;;;;;;;19.51;59.93;100739.41;4952452;28;20546;-76
2023/07/05 09:52:21;;;;;;;7.40;1.95;;;;;;;19.38;58.28;100778.16;4951882;28;20034;-70
2023/07/05 09:54:50;;;;;;;10.03;2.10;;;;;;;19.36;57.44;100745.50;4959781;28;20038;-70
2023/07/05 09:57:23;;;;;;;8.73;2.03;;;;;;;19.42;57.64;100758.13;4985508;28;20110;-70
2023/07/05 09:59:48;;;;;;;5.38;1.98;;;;;;;19.38;56.95;100767.50;4970969;28;20019;-70
2023/07/05 10:02:22;;;;;;;7.18;1.75;;;;;;;19.22;57.19;100767.56;4970264;28;20089;-70
2023/07/05 10:04:58;;;;;;;6.90;2.00;;;;;;;19.28;57.00;100750.88;4968099;28;20045;-70
2023/07/05 10:07:27;;;;;;;7.63;1.52;;;;;;;19.46;55.84;100757.78;4954725;28;20488;-70
2023/07/05 10:10:10;;;;;;;9.45;1.90;;;;;;;19.56;56.37;100785.13;4950892;28;20097;-70
2023/07/05 10:12:38;;;;;;;7.07;1.88;;;;;;;19.76;55.54;100791.72;4984309;28;20085;-70
2023/07/05 10:15:23;;;;;;;4.93;1.60;;;;;;;19.92;54.61;100790.78;4968262;28;20027;-70
2023/07/05 10:17:54;;;;;;;8.73;1.65;;;;;;;19.80;53.78;100797.53;4967142;28;20121;-70
2023/07/05 10:20:25;;;;;;;5.85;2.03;;;;;;;19.93;55.16;100795.97;4969014;28;20045;-70
2023/07/05 10:23:19;;;;;;;4.30;1.65;;;;;;;19.99;54.97;100789.06;4967033;28;20059;-71
2023/07/05 10:25:46;;;;;;;8.32;1.95;;;;;;;19.87;54.24;100809.19;4949499;28;20054;-72
2023/07/05 10:28:19;;;;;;;6.65;1.90;;;;;;;19.88;52.77;100819.69;4949895;28;20027;-71
2023/07/05 10:31:03;;;;;;;5.97;1.80;;;;;;;20.10;54.91;100810.06;4949619;28;20027;-70
2023/07/05 10:33:31;;;;;;;5.18;1.80;;;;;;;19.90;53.59;100816.84;4964797;28;20020;-70
2023/07/05 10:36:05;;;;;;;4.85;1.45;;;;;;;19.92;52.72;100823.69;4964401;28;20066;-78
2023/07/05 10:38:33;;;;;;;7.43;1.63;;;;;;;19.77;53.29;100822.75;4948922;28;20023;-71
2023/07/05 10:41:04;;;;;;;6.38;1.58;;;;;;;19.72;54.25;100843.81;4949922;28;20048;-70
2023/07/05 10:43:32;;;;;;;4.82;1.42;;;;;;;19.89;55.31;100844.56;4961139;28;20022;-70
2023/07/05 10:45:58;;;;;;;4.95;1.55;;;;;;;19.99;51.22;100829.97;4983648;28;20253;-70
2023/07/05 10:48:54;;;;;;;7.45;1.67;;;;;;;19.93;49.61;100848.53;4988864;28;20177;-71
2023/07/05 10:51:26;;;;;;;5.35;1.30;;;;;;;19.88;49.50;100849.06;4991408;28;20030;-71
2023/07/05 10:54:04;;;;;;;5.03;1.60;;;;;;;19.90;51.42;100836.38;4967766;28;20496;-79
2023/07/05 10:56:35;;;;;;;9.63;1.75;;;;;;;19.88;48.81;100853.56;4988389;28;20110;-78
2023/07/05 10:59:44;;;;;;;6.97;1.50;;;;;;;20.20;49.99;100865.94;4986603;28;20109;-80
2023/07/05 11:02:36;;;;;;;7.50;1.58;;;;;;;20.52;50.25;100844.41;4988086;28;20022;-71
2023/07/05 11:05:04;;;;;;;6.68;1.40;;;;;;;20.59;48.32;100861.38;4989892;28;20356;-78
2023/07/05 11:07:32;;;;;;;7.03;1.50;;;;;;;20.69;50.42;100855.78;4992056;28;20114;-71
2023/07/05 11:09:58;;;;;;;5.55;1.58;;;;;;;20.41;48.35;100865.34;4992397;28;20030;-79
2023/07/05 11:12:27;;;;;;;3.92;1.70;;;;;;;20.48;49.27;100869.00;4986461;28;20667;-79
2023/07/05 11:14:55;;;;;;;5.22;1.50;;;;;;;20.57;47.83;100876.78;4972817;28;20194;-78
2023/07/05 11:17:28;;;;;;;8.32;2.17;;;;;;;20.78;47.74;100872.59;4966505;28;20027;-72
2023/07/05 11:19:53;;;;;;;4.97;1.50;;;;;;;20.99;47.76;100878.13;4953634;28;20042;-72
2023/07/05 11:22:45;;;;;;;5.97;1.77;;;;;;;21.08;49.38;100877.03;4954404;28;20484;-78
2023/07/05 11:25:31;;;;;;;9.10;1.45;;;;;;;20.87;47.43;100882.25;4954342;28;20387;-77
2023/07/05 11:27:56;;;;;;;7.93;1.48;;;;;;;21.00;47.31;100885.13;4952876;29;20058;-78
2023/07/05 11:30:44;;;;;;;5.88;1.90;;;;;;;21.12;47.95;100889.03;4953301;28;20114;-78